Boa Esperanca, Brazil
Current Conditions -  °F | °C
As of 6:00 AM on Monday 26 Jan 2015 (Local Time) from SBVT Reporting Station
Few Clouds Few Clouds  
Wind Chill: 75°   Ceiling: Unl
Heat Index: 75°   Visibility: 6mi
Dew Point: 68°   Wind: 3mph
Humidity: 78%   Direction: 360°N
Pressure: 29.94"   Gusts: NA
Location:  18.54°S, 40.3°W
Report Text: SBVT 260800Z 36003KT 9999 FEW020 24/20 Q1014
Loading
Personal Weather Stations






























Interactive Weather Map New forecast layout! Learn more

10-Day Weather Forecast

Advertisements
Track Severe Weather on mobile